Gujrat, Pakistan
Current Conditions -  °F | °C
As of 7:55 PM on Wednesday 26 Nov 2014 (Local Time) from OPLA Reporting Station
Smoke Smoke  
Wind Chill: 66°   Ceiling: Unl
Heat Index: 66°   Visibility: 1.8mi
Dew Point: 52°   Wind: 0mph
Humidity: 60%   Direction: NA
Pressure: 29.85"   Gusts: NA
Location:  32.58°N, 74.07°E
Report Text: OPLA 261455Z 00000KT 3000 FU NSC 19/11 Q1011 TEMPO 2000
Loading
Personal Weather Stations






























Interactive Weather Map New forecast layout! Learn more

10-Day Weather Forecast

Advertisements
Track Severe Weather on mobile